Artesian, Iowa
Current Conditions -  °F | °C
As of 2:54 AM on Saturday 29 Nov 2014 (Local Time) from KALO Reporting Station
Haze Haze  
Wind Chill: -7°   Ceiling: Unl
Heat Index: -2°   Visibility: 5mi
Dew Point: -3°   Wind: 8mph
Humidity: 96%   Direction: 130°SE
Pressure: 29.61"   Gusts: NA
Location:  42.787°N, 92.4284°W
Report Text: KALO 290854Z 13007KT 5SM BR CLR M02/M03 A2961 RMK AO2 SLP036 T10221028 56024
Loading
Personal Weather Stations






























Interactive Weather Map New forecast layout! Learn more

10-Day Weather Forecast

Advertisements
Track Severe Weather on mobile